sensor_id;sensor_type;location;lat;lon;timestamp;temperature;humidity
25616;DHT22;13482;48.234;13.006;2024-03-23T00:55:45;14.40;65.90
25616;DHT22;13482;48.234;13.006;2024-03-23T00:58:11;14.40;65.90
25616;DHT22;13482;48.234;13.006;2024-03-23T01:00:37;14.30;65.90
25616;DHT22;13482;48.234;13.006;2024-03-23T01:03:04;14.30;66.00
25616;DHT22;13482;48.234;13.006;2024-03-23T01:05:30;14.30;65.90
25616;DHT22;13482;48.234;13.006;2024-03-23T01:07:57;14.30;65.90
25616;DHT22;13482;48.234;13.006;2024-03-23T01:10:23;14.30;65.80
25616;DHT22;13482;48.234;13.006;2024-03-23T01:12:49;14.20;65.80
25616;DHT22;13482;48.234;13.006;2024-03-23T01:15:15;14.20;65.90
25616;DHT22;13482;48.234;13.006;2024-03-23T01:17:42;14.20;65.90
25616;DHT22;13482;48.234;13.006;2024-03-23T01:20:08;14.20;66.00
25616;DHT22;13482;48.234;13.006;2024-03-23T01:22:35;14.10;65.90
25616;DHT22;13482;48.234;13.006;2024-03-23T01:25:01;14.10;65.90
25616;DHT22;13482;48.234;13.006;2024-03-23T01:27:28;14.00;65.90
25616;DHT22;13482;48.234;13.006;2024-03-23T01:29:54;13.90;66.00
25616;DHT22;13482;48.234;13.006;2024-03-23T01:32:21;13.90;66.00
25616;DHT22;13482;48.234;13.006;2024-03-23T01:34:47;13.80;66.10
25616;DHT22;13482;48.234;13.006;2024-03-23T01:37:13;13.70;66.10
25616;DHT22;13482;48.234;13.006;2024-03-23T01:39:40;13.70;66.20
25616;DHT22;13482;48.234;13.006;2024-03-23T01:42:06;13.60;66.30
25616;DHT22;13482;48.234;13.006;2024-03-23T01:44:32;13.50;66.30
25616;DHT22;13482;48.234;13.006;2024-03-23T01:46:59;13.50;66.40
25616;DHT22;13482;48.234;13.006;2024-03-23T01:49:25;13.50;66.40
25616;DHT22;13482;48.234;13.006;2024-03-23T01:51:52;13.40;66.30
25616;DHT22;13482;48.234;13.006;2024-03-23T01:54:18;13.30;66.30
25616;DHT22;13482;48.234;13.006;2024-03-23T01:56:45;13.30;66.40
25616;DHT22;13482;48.234;13.006;2024-03-23T01:59:13;13.20;66.40
25616;DHT22;13482;48.234;13.006;2024-03-23T02:01:39;13.20;66.50
25616;DHT22;13482;48.234;13.006;2024-03-23T02:04:05;13.10;66.50
25616;DHT22;13482;48.234;13.006;2024-03-23T02:06:32;13.00;66.50
25616;DHT22;13482;48.234;13.006;2024-03-23T02:08:59;13.00;66.50
25616;DHT22;13482;48.234;13.006;2024-03-23T02:11:26;12.90;66.60
25616;DHT22;13482;48.234;13.006;2024-03-23T02:13:53;12.90;66.50
25616;DHT22;13482;48.234;13.006;2024-03-23T02:16:19;12.80;66.50
25616;DHT22;13482;48.234;13.006;2024-03-23T02:18:45;12.80;66.50
25616;DHT22;13482;48.234;13.006;2024-03-23T02:21:12;12.70;66.40
25616;DHT22;13482;48.234;13.006;2024-03-23T02:23:38;12.70;66.40
25616;DHT22;13482;48.234;13.006;2024-03-23T02:26:04;12.60;66.40
25616;DHT22;13482;48.234;13.006;2024-03-23T02:28:30;12.60;66.40
25616;DHT22;13482;48.234;13.006;2024-03-23T02:30:57;12.50;66.30
25616;DHT22;13482;48.234;13.006;2024-03-23T02:33:24;12.50;66.30
25616;DHT22;13482;48.234;13.006;2024-03-23T02:35:51;12.40;66.30
25616;DHT22;13482;48.234;13.006;2024-03-23T02:38:22;12.30;66.50
25616;DHT22;13482;48.234;13.006;2024-03-23T02:40:48;12.30;66.40
25616;DHT22;13482;48.234;13.006;2024-03-23T02:43:15;12.20;66.40
25616;DHT22;13482;48.234;13.006;2024-03-23T02:45:42;12.20;66.40
25616;DHT22;13482;48.234;13.006;2024-03-23T02:48:08;12.10;66.40
25616;DHT22;13482;48.234;13.006;2024-03-23T02:50:34;12.00;66.40
25616;DHT22;13482;48.234;13.006;2024-03-23T02:53:00;12.00;66.40
25616;DHT22;13482;48.234;13.006;2024-03-23T02:55:27;11.90;66.40
25616;DHT22;13482;48.234;13.006;2024-03-23T02:57:53;11.90;66.50
25616;DHT22;13482;48.234;13.006;2024-03-23T03:00:20;11.80;66.50
25616;DHT22;13482;48.234;13.006;2024-03-23T03:02:46;11.70;66.60
25616;DHT22;13482;48.234;13.006;2024-03-23T03:05:12;11.70;66.70
25616;DHT22;13482;48.234;13.006;2024-03-23T03:07:39;11.60;66.70
25616;DHT22;13482;48.234;13.006;2024-03-23T03:10:07;11.60;66.70
25616;DHT22;13482;48.234;13.006;2024-03-23T03:12:37;11.50;66.60
25616;DHT22;13482;48.234;13.006;2024-03-23T03:15:04;11.50;66.60
25616;DHT22;13482;48.234;13.006;2024-03-23T03:17:31;11.40;66.50
25616;DHT22;13482;48.234;13.006;2024-03-23T03:19:58;11.40;66.50
25616;DHT22;13482;48.234;13.006;2024-03-23T03:22:24;11.30;66.50
25616;DHT22;13482;48.234;13.006;2024-03-23T03:24:50;11.30;66.60
25616;DHT22;13482;48.234;13.006;2024-03-23T03:27:17;11.20;66.50
25616;DHT22;13482;48.234;13.006;2024-03-23T03:29:43;11.20;66.50
25616;DHT22;13482;48.234;13.006;2024-03-23T03:32:09;11.10;66.50
25616;DHT22;13482;48.234;13.006;2024-03-23T03:34:36;11.10;66.40
25616;DHT22;13482;48.234;13.006;2024-03-23T03:37:02;11.10;66.30
25616;DHT22;13482;48.234;13.006;2024-03-23T03:39:28;11.00;66.30
25616;DHT22;13482;48.234;13.006;2024-03-23T03:41:54;11.00;66.40
25616;DHT22;13482;48.234;13.006;2024-03-23T03:44:21;10.90;66.50
25616;DHT22;13482;48.234;13.006;2024-03-23T03:46:47;10.90;66.50
25616;DHT22;13482;48.234;13.006;2024-03-23T03:49:13;10.80;66.50
25616;DHT22;13482;48.234;13.006;2024-03-23T03:51:39;10.70;66.60
25616;DHT22;13482;48.234;13.006;2024-03-23T03:54:06;10.70;66.80
25616;DHT22;13482;48.234;13.006;2024-03-23T03:56:32;10.60;66.80
25616;DHT22;13482;48.234;13.006;2024-03-23T03:58:58;10.50;66.90
25616;DHT22;13482;48.234;13.006;2024-03-23T04:01:25;10.50;67.00
25616;DHT22;13482;48.234;13.006;2024-03-23T04:03:52;10.50;67.00
25616;DHT22;13482;48.234;13.006;2024-03-23T04:06:19;10.40;67.10
25616;DHT22;13482;48.234;13.006;2024-03-23T04:08:46;10.40;67.20
25616;DHT22;13482;48.234;13.006;2024-03-23T04:11:12;10.40;67.10
25616;DHT22;13482;48.234;13.006;2024-03-23T04:13:38;10.40;67.20
25616;DHT22;13482;48.234;13.006;2024-03-23T04:16:07;10.30;67.30
25616;DHT22;13482;48.234;13.006;2024-03-23T04:18:35;10.30;67.30
25616;DHT22;13482;48.234;13.006;2024-03-23T04:21:02;10.30;67.30
25616;DHT22;13482;48.234;13.006;2024-03-23T04:23:29;10.20;67.30
25616;DHT22;13482;48.234;13.006;2024-03-23T04:25:55;10.20;67.30
25616;DHT22;13482;48.234;13.006;2024-03-23T04:28:21;10.20;67.30
25616;DHT22;13482;48.234;13.006;2024-03-23T04:30:48;10.10;67.40
25616;DHT22;13482;48.234;13.006;2024-03-23T04:33:15;10.10;67.50
25616;DHT22;13482;48.234;13.006;2024-03-23T04:35:41;10.00;67.50
25616;DHT22;13482;48.234;13.006;2024-03-23T04:38:07;10.00;67.50
25616;DHT22;13482;48.234;13.006;2024-03-23T04:40:34;10.00;67.60
25616;DHT22;13482;48.234;13.006;2024-03-23T04:43:01;9.90;67.60
25616;DHT22;13482;48.234;13.006;2024-03-23T04:45:27;9.90;67.70
25616;DHT22;13482;48.234;13.006;2024-03-23T04:47:53;9.80;67.80
25616;DHT22;13482;48.234;13.006;2024-03-23T04:50:20;9.80;67.90
25616;DHT22;13482;48.234;13.006;2024-03-23T04:52:46;9.80;67.90
25616;DHT22;13482;48.234;13.006;2024-03-23T04:55:12;9.80;67.80
25616;DHT22;13482;48.234;13.006;2024-03-23T04:57:39;9.70;67.60
25616;DHT22;13482;48.234;13.006;2024-03-23T05:00:06;9.70;67.50
25616;DHT22;13482;48.234;13.006;2024-03-23T05:02:44;9.70;67.60
25616;DHT22;13482;48.234;13.006;2024-03-23T05:05:11;9.70;67.60
25616;DHT22;13482;48.234;13.006;2024-03-23T05:07:38;9.70;67.70
25616;DHT22;13482;48.234;13.006;2024-03-23T05:10:05;9.60;67.80
25616;DHT22;13482;48.234;13.006;2024-03-23T05:12:32;9.60;68.10
25616;DHT22;13482;48.234;13.006;2024-03-23T05:14:58;9.60;68.00
25616;DHT22;13482;48.234;13.006;2024-03-23T05:17:25;9.60;68.10
25616;DHT22;13482;48.234;13.006;2024-03-23T05:19:51;9.60;68.20
25616;DHT22;13482;48.234;13.006;2024-03-23T05:22:17;9.50;68.30
25616;DHT22;13482;48.234;13.006;2024-03-23T05:24:45;9.50;68.30
25616;DHT22;13482;48.234;13.006;2024-03-23T05:27:12;9.50;68.40
25616;DHT22;13482;48.234;13.006;2024-03-23T05:29:38;9.50;68.30
25616;DHT22;13482;48.234;13.006;2024-03-23T05:32:05;9.50;68.20
25616;DHT22;13482;48.234;13.006;2024-03-23T05:34:31;9.50;68.20
25616;DHT22;13482;48.234;13.006;2024-03-23T05:36:58;9.50;68.30
25616;DHT22;13482;48.234;13.006;2024-03-23T05:39:24;9.50;68.40
25616;DHT22;13482;48.234;13.006;2024-03-23T05:41:51;9.50;68.40
25616;DHT22;13482;48.234;13.006;2024-03-23T05:44:17;9.50;68.50
25616;DHT22;13482;48.234;13.006;2024-03-23T05:46:44;9.50;68.50
25616;DHT22;13482;48.234;13.006;2024-03-23T05:49:15;9.50;68.40
25616;DHT22;13482;48.234;13.006;2024-03-23T05:51:44;9.60;68.50
25616;DHT22;13482;48.234;13.006;2024-03-23T05:54:10;9.60;68.60
25616;DHT22;13482;48.234;13.006;2024-03-23T05:56:36;9.60;68.80
25616;DHT22;13482;48.234;13.006;2024-03-23T05:59:03;9.70;68.90
25616;DHT22;13482;48.234;13.006;2024-03-23T06:01:29;9.70;69.00
25616;DHT22;13482;48.234;13.006;2024-03-23T06:03:58;9.80;69.10
25616;DHT22;13482;48.234;13.006;2024-03-23T06:06:27;9.90;69.20
25616;DHT22;13482;48.234;13.006;2024-03-23T06:08:56;9.90;69.40
25616;DHT22;13482;48.234;13.006;2024-03-23T06:11:23;10.00;69.60
25616;DHT22;13482;48.234;13.006;2024-03-23T06:13:49;10.10;69.80
25616;DHT22;13482;48.234;13.006;2024-03-23T06:16:16;10.20;69.90
25616;DHT22;13482;48.234;13.006;2024-03-23T06:18:42;10.30;70.00
25616;DHT22;13482;48.234;13.006;2024-03-23T06:21:13;10.40;70.00
25616;DHT22;13482;48.234;13.006;2024-03-23T06:23:41;10.60;70.20
25616;DHT22;13482;48.234;13.006;2024-03-23T06:26:09;10.70;70.10
25616;DHT22;13482;48.234;13.006;2024-03-23T06:28:35;10.80;70.10
25616;DHT22;13482;48.234;13.006;2024-03-23T06:31:01;10.90;70.30
25616;DHT22;13482;48.234;13.006;2024-03-23T06:33:28;11.10;70.50
25616;DHT22;13482;48.234;13.006;2024-03-23T06:35:54;11.20;70.60
25616;DHT22;13482;48.234;13.006;2024-03-23T06:38:21;11.40;70.70
25616;DHT22;13482;48.234;13.006;2024-03-23T06:40:47;11.50;70.80
25616;DHT22;13482;48.234;13.006;2024-03-23T06:43:16;11.70;71.00
25616;DHT22;13482;48.234;13.006;2024-03-23T06:45:42;11.80;71.00
25616;DHT22;13482;48.234;13.006;2024-03-23T06:48:09;12.00;71.00
25616;DHT22;13482;48.234;13.006;2024-03-23T06:50:35;12.20;71.00
25616;DHT22;13482;48.234;13.006;2024-03-23T06:53:01;12.40;71.10
25616;DHT22;13482;48.234;13.006;2024-03-23T06:55:28;12.50;71.00
25616;DHT22;13482;48.234;13.006;2024-03-23T06:57:55;12.70;71.00
25616;DHT22;13482;48.234;13.006;2024-03-23T07:00:21;12.90;70.90
25616;DHT22;13482;48.234;13.006;2024-03-23T07:02:47;13.10;70.70
25616;DHT22;13482;48.234;13.006;2024-03-23T07:05:14;13.30;70.60
25616;DHT22;13482;48.234;13.006;2024-03-23T07:07:40;13.40;70.60
25616;DHT22;13482;48.234;13.006;2024-03-23T07:10:07;13.60;70.50
25616;DHT22;13482;48.234;13.006;2024-03-23T07:12:33;13.80;70.10
25616;DHT22;13482;48.234;13.006;2024-03-23T07:14:59;14.00;69.90
25616;DHT22;13482;48.234;13.006;2024-03-23T07:17:26;14.10;69.70
25616;DHT22;13482;48.234;13.006;2024-03-23T07:19:52;14.30;69.60
25616;DHT22;13482;48.234;13.006;2024-03-23T07:22:18;14.50;69.40
25616;DHT22;13482;48.234;13.006;2024-03-23T07:24:45;14.60;69.40
25616;DHT22;13482;48.234;13.006;2024-03-23T07:27:11;14.80;69.30
25616;DHT22;13482;48.234;13.006;2024-03-23T07:29:37;14.90;69.10
25616;DHT22;13482;48.234;13.006;2024-03-23T07:32:04;15.10;69.00
25616;DHT22;13482;48.234;13.006;2024-03-23T07:34:30;15.30;69.00
25616;DHT22;13482;48.234;13.006;2024-03-23T07:36:57;15.40;69.10
25616;DHT22;13482;48.234;13.006;2024-03-23T07:39:23;15.60;69.10
25616;DHT22;13482;48.234;13.006;2024-03-23T07:41:50;15.80;68.90
25616;DHT22;13482;48.234;13.006;2024-03-23T07:44:17;16.00;68.90
25616;DHT22;13482;48.234;13.006;2024-03-23T07:46:43;16.20;68.80
25616;DHT22;13482;48.234;13.006;2024-03-23T07:49:09;16.40;68.80
25616;DHT22;13482;48.234;13.006;2024-03-23T07:51:36;16.60;68.60
25616;DHT22;13482;48.234;13.006;2024-03-23T07:54:05;16.80;68.30
25616;DHT22;13482;48.234;13.006;2024-03-23T07:56:31;17.00;67.80
25616;DHT22;13482;48.234;13.006;2024-03-23T07:58:58;17.10;67.50
25616;DHT22;13482;48.234;13.006;2024-03-23T08:01:24;17.30;67.70
25616;DHT22;13482;48.234;13.006;2024-03-23T08:03:51;17.40;67.20
25616;DHT22;13482;48.234;13.006;2024-03-23T08:06:18;17.60;66.70
25616;DHT22;13482;48.234;13.006;2024-03-23T08:08:47;17.70;66.80
25616;DHT22;13482;48.234;13.006;2024-03-23T08:11:15;17.90;67.20
25616;DHT22;13482;48.234;13.006;2024-03-23T08:13:42;18.10;67.10
25616;DHT22;13482;48.234;13.006;2024-03-23T08:16:11;18.30;66.70
25616;DHT22;13482;48.234;13.006;2024-03-23T08:18:40;18.40;65.90
25616;DHT22;13482;48.234;13.006;2024-03-23T08:21:07;18.60;66.10
25616;DHT22;13482;48.234;13.006;2024-03-23T08:23:35;18.70;65.80
25616;DHT22;13482;48.234;13.006;2024-03-23T08:26:09;18.90;65.50
25616;DHT22;13482;48.234;13.006;2024-03-23T08:28:37;19.10;65.40
25616;DHT22;13482;48.234;13.006;2024-03-23T08:31:06;19.20;65.10
25616;DHT22;13482;48.234;13.006;2024-03-23T08:33:34;19.40;64.70
25616;DHT22;13482;48.234;13.006;2024-03-23T08:36:06;19.60;64.70
25616;DHT22;13482;48.234;13.006;2024-03-23T08:38:34;19.70;64.40
25616;DHT22;13482;48.234;13.006;2024-03-23T08:41:03;19.90;64.40
25616;DHT22;13482;48.234;13.006;2024-03-23T08:43:37;20.10;63.80
25616;DHT22;13482;48.234;13.006;2024-03-23T08:46:06;20.30;63.80
25616;DHT22;13482;48.234;13.006;2024-03-23T08:48:38;20.40;62.90
25616;DHT22;13482;48.234;13.006;2024-03-23T08:51:07;20.60;62.50
25616;DHT22;13482;48.234;13.006;2024-03-23T08:53:36;20.80;62.00
25616;DHT22;13482;48.234;13.006;2024-03-23T08:56:04;20.90;60.70
25616;DHT22;13482;48.234;13.006;2024-03-23T08:58:33;21.00;60.30
25616;DHT22;13482;48.234;13.006;2024-03-23T09:01:09;21.00;59.60
25616;DHT22;13482;48.234;13.006;2024-03-23T09:03:37;20.90;58.60
25616;DHT22;13482;48.234;13.006;2024-03-23T09:06:11;20.80;58.20
25616;DHT22;13482;48.234;13.006;2024-03-23T09:08:39;20.60;57.00
25616;DHT22;13482;48.234;13.006;2024-03-23T09:11:08;20.40;57.40
25616;DHT22;13482;48.234;13.006;2024-03-23T09:13:37;20.10;57.50
25616;DHT22;13482;48.234;13.006;2024-03-23T09:16:05;19.80;57.80
25616;DHT22;13482;48.234;13.006;2024-03-23T09:18:34;19.50;58.50
25616;DHT22;13482;48.234;13.006;2024-03-23T09:21:02;19.20;59.10
25616;DHT22;13482;48.234;13.006;2024-03-23T09:23:39;18.90;59.60
25616;DHT22;13482;48.234;13.006;2024-03-23T09:26:05;18.70;60.10
25616;DHT22;13482;48.234;13.006;2024-03-23T09:28:35;18.50;60.40
25616;DHT22;13482;48.234;13.006;2024-03-23T09:31:05;18.20;60.40
25616;DHT22;13482;48.234;13.006;2024-03-23T09:33:41;18.00;59.70
25616;DHT22;13482;48.234;13.006;2024-03-23T09:36:08;17.70;59.70
25616;DHT22;13482;48.234;13.006;2024-03-23T09:38:35;17.40;60.00
25616;DHT22;13482;48.234;13.006;2024-03-23T09:41:07;17.10;60.60
25616;DHT22;13482;48.234;13.006;2024-03-23T09:43:35;16.90;61.00
25616;DHT22;13482;48.234;13.006;2024-03-23T09:46:02;16.60;61.20
25616;DHT22;13482;48.234;13.006;2024-03-23T09:48:29;16.40;61.50
25616;DHT22;13482;48.234;13.006;2024-03-23T09:50:56;16.20;61.80
25616;DHT22;13482;48.234;13.006;2024-03-23T09:53:22;16.00;62.00
25616;DHT22;13482;48.234;13.006;2024-03-23T09:55:49;15.80;62.10
25616;DHT22;13482;48.234;13.006;2024-03-23T09:58:16;15.70;62.30
25616;DHT22;13482;48.234;13.006;2024-03-23T10:00:44;15.50;62.40
25616;DHT22;13482;48.234;13.006;2024-03-23T10:03:11;15.40;62.50
25616;DHT22;13482;48.234;13.006;2024-03-23T10:05:38;15.20;62.90
25616;DHT22;13482;48.234;13.006;2024-03-23T10:08:30;15.10;63.00
25616;DHT22;13482;48.234;13.006;2024-03-23T10:11:16;15.00;63.80
25616;DHT22;13482;48.234;13.006;2024-03-23T10:13:44;14.90;63.70
25616;DHT22;13482;48.234;13.006;2024-03-23T10:16:20;14.80;63.70
25616;DHT22;13482;48.234;13.006;2024-03-23T10:18:48;14.70;63.70
25616;DHT22;13482;48.234;13.006;2024-03-23T10:21:16;14.60;64.00
25616;DHT22;13482;48.234;13.006;2024-03-23T10:23:44;14.50;64.20
25616;DHT22;13482;48.234;13.006;2024-03-23T10:26:22;14.50;64.50
25616;DHT22;13482;48.234;13.006;2024-03-23T10:28:59;14.40;64.60
25616;DHT22;13482;48.234;13.006;2024-03-23T10:31:28;14.30;65.30
25616;DHT22;13482;48.234;13.006;2024-03-23T10:33:55;14.20;65.00
25616;DHT22;13482;48.234;13.006;2024-03-23T10:36:22;14.10;65.50
25616;DHT22;13482;48.234;13.006;2024-03-23T10:38:53;14.00;65.60
25616;DHT22;13482;48.234;13.006;2024-03-23T10:41:20;14.00;65.80
25616;DHT22;13482;48.234;13.006;2024-03-23T10:43:48;13.90;65.90
25616;DHT22;13482;48.234;13.006;2024-03-23T10:46:15;13.90;66.00
25616;DHT22;13482;48.234;13.006;2024-03-23T10:48:41;13.80;66.40
25616;DHT22;13482;48.234;13.006;2024-03-23T10:51:10;13.80;66.50
25616;DHT22;13482;48.234;13.006;2024-03-23T10:53:37;13.80;66.60
25616;DHT22;13482;48.234;13.006;2024-03-23T10:56:05;13.80;66.90
25616;DHT22;13482;48.234;13.006;2024-03-23T10:58:39;13.80;66.90
25616;DHT22;13482;48.234;13.006;2024-03-23T11:01:13;13.80;67.00
25616;DHT22;13482;48.234;13.006;2024-03-23T11:03:45;13.80;67.20
25616;DHT22;13482;48.234;13.006;2024-03-23T11:09:03;13.80;68.20
25616;DHT22;13482;48.234;13.006;2024-03-23T11:11:32;13.80;67.30
25616;DHT22;13482;48.234;13.006;2024-03-23T11:14:00;13.80;67.30
25616;DHT22;13482;48.234;13.006;2024-03-23T11:16:29;13.80;67.40
25616;DHT22;13482;48.234;13.006;2024-03-23T11:19:36;13.80;67.40
25616;DHT22;13482;48.234;13.006;2024-03-23T11:22:03;13.80;68.00
25616;DHT22;13482;48.234;13.006;2024-03-23T11:24:34;13.70;67.20
25616;DHT22;13482;48.234;13.006;2024-03-23T11:27:00;13.60;67.30
25616;DHT22;13482;48.234;13.006;2024-03-23T11:29:30;13.60;67.20
25616;DHT22;13482;48.234;13.006;2024-03-23T11:31:57;13.50;67.20
25616;DHT22;13482;48.234;13.006;2024-03-23T11:34:24;13.50;67.20
25616;DHT22;13482;48.234;13.006;2024-03-23T11:37:04;13.40;66.90
25616;DHT22;13482;48.234;13.006;2024-03-23T11:39:32;13.40;66.80
25616;DHT22;13482;48.234;13.006;2024-03-23T11:41:58;13.30;66.40
25616;DHT22;13482;48.234;13.006;2024-03-23T11:44:26;13.30;66.40
25616;DHT22;13482;48.234;13.006;2024-03-23T11:46:53;13.20;66.20
25616;DHT22;13482;48.234;13.006;2024-03-23T11:49:26;13.20;66.20
25616;DHT22;13482;48.234;13.006;2024-03-23T11:51:57;13.10;66.20
25616;DHT22;13482;48.234;13.006;2024-03-23T11:54:24;13.10;66.20
25616;DHT22;13482;48.234;13.006;2024-03-23T11:56:58;13.00;66.20
25616;DHT22;13482;48.234;13.006;2024-03-23T11:59:40;13.00;66.60
25616;DHT22;13482;48.234;13.006;2024-03-23T12:02:11;13.00;66.90
25616;DHT22;13482;48.234;13.006;2024-03-23T12:04:41;12.90;66.80
25616;DHT22;13482;48.234;13.006;2024-03-23T12:07:12;12.90;66.90
25616;DHT22;13482;48.234;13.006;2024-03-23T12:09:38;12.90;67.20
25616;DHT22;13482;48.234;13.006;2024-03-23T12:12:16;12.80;67.10
25616;DHT22;13482;48.234;13.006;2024-03-23T12:15:02;12.80;67.00
25616;DHT22;13482;48.234;13.006;2024-03-23T12:17:34;12.70;67.60
25616;DHT22;13482;48.234;13.006;2024-03-23T12:20:01;12.60;67.40
25616;DHT22;13482;48.234;13.006;2024-03-23T12:22:29;12.50;68.00
25616;DHT22;13482;48.234;13.006;2024-03-23T12:25:01;12.40;68.20
25616;DHT22;13482;48.234;13.006;2024-03-23T12:27:27;12.30;68.00
25616;DHT22;13482;48.234;13.006;2024-03-23T12:29:53;12.30;68.00
25616;DHT22;13482;48.234;13.006;2024-03-23T12:32:20;12.20;68.10
25616;DHT22;13482;48.234;13.006;2024-03-23T12:34:46;12.10;67.80
25616;DHT22;13482;48.234;13.006;2024-03-23T12:37:13;12.00;67.80
25616;DHT22;13482;48.234;13.006;2024-03-23T12:39:40;11.90;68.10
25616;DHT22;13482;48.234;13.006;2024-03-23T12:42:06;11.90;68.30
25616;DHT22;13482;48.234;13.006;2024-03-23T12:44:33;11.80;68.30
25616;DHT22;13482;48.234;13.006;2024-03-23T12:47:01;11.80;68.40
25616;DHT22;13482;48.234;13.006;2024-03-23T12:49:28;11.80;68.40
25616;DHT22;13482;48.234;13.006;2024-03-23T12:51:56;11.80;68.50
25616;DHT22;13482;48.234;13.006;2024-03-23T12:54:22;11.80;68.60
25616;DHT22;13482;48.234;13.006;2024-03-23T12:56:49;11.90;68.60
25616;DHT22;13482;48.234;13.006;2024-03-23T12:59:16;11.90;68.60
25616;DHT22;13482;48.234;13.006;2024-03-23T13:01:44;11.90;68.60
25616;DHT22;13482;48.234;13.006;2024-03-23T13:04:13;11.90;68.50
25616;DHT22;13482;48.234;13.006;2024-03-23T13:06:40;12.00;68.30
25616;DHT22;13482;48.234;13.006;2024-03-23T13:09:07;12.00;68.20
25616;DHT22;13482;48.234;13.006;2024-03-23T13:11:33;12.00;68.30
25616;DHT22;13482;48.234;13.006;2024-03-23T13:14:00;12.00;68.30
25616;DHT22;13482;48.234;13.006;2024-03-23T13:16:29;12.10;68.20
25616;DHT22;13482;48.234;13.006;2024-03-23T13:18:57;12.10;68.10
25616;DHT22;13482;48.234;13.006;2024-03-23T13:21:23;12.10;68.10
25616;DHT22;13482;48.234;13.006;2024-03-23T13:23:49;12.20;68.00
25616;DHT22;13482;48.234;13.006;2024-03-23T13:26:16;12.20;68.00
25616;DHT22;13482;48.234;13.006;2024-03-23T13:28:43;12.20;68.00
25616;DHT22;13482;48.234;13.006;2024-03-23T13:31:10;12.30;68.00
25616;DHT22;13482;48.234;13.006;2024-03-23T13:33:36;12.30;67.90
25616;DHT22;13482;48.234;13.006;2024-03-23T13:36:03;12.40;67.70
25616;DHT22;13482;48.234;13.006;2024-03-23T13:38:30;12.40;67.60
25616;DHT22;13482;48.234;13.006;2024-03-23T13:40:59;12.40;67.50
25616;DHT22;13482;48.234;13.006;2024-03-23T13:43:27;12.50;67.40
25616;DHT22;13482;48.234;13.006;2024-03-23T13:45:57;12.50;67.40
25616;DHT22;13482;48.234;13.006;2024-03-23T13:48:27;12.50;67.10
25616;DHT22;13482;48.234;13.006;2024-03-23T13:51:02;12.50;67.00
25616;DHT22;13482;48.234;13.006;2024-03-23T13:53:31;12.50;66.90
25616;DHT22;13482;48.234;13.006;2024-03-23T13:56:00;12.50;66.70
25616;DHT22;13482;48.234;13.006;2024-03-23T13:58:27;12.50;66.90
25616;DHT22;13482;48.234;13.006;2024-03-23T14:00:55;12.50;66.90
25616;DHT22;13482;48.234;13.006;2024-03-23T14:03:23;12.50;66.90
25616;DHT22;13482;48.234;13.006;2024-03-23T14:05:50;12.50;67.00
25616;DHT22;13482;48.234;13.006;2024-03-23T14:08:18;12.50;67.00
25616;DHT22;13482;48.234;13.006;2024-03-23T14:10:44;12.60;67.00
25616;DHT22;13482;48.234;13.006;2024-03-23T14:13:11;12.60;67.10
25616;DHT22;13482;48.234;13.006;2024-03-23T14:15:38;12.60;67.00
25616;DHT22;13482;48.234;13.006;2024-03-23T14:18:05;12.70;66.80
25616;DHT22;13482;48.234;13.006;2024-03-23T14:20:32;12.70;66.70
25616;DHT22;13482;48.234;13.006;2024-03-23T14:22:58;12.70;66.70
25616;DHT22;13482;48.234;13.006;2024-03-23T14:25:24;12.80;66.60
25616;DHT22;13482;48.234;13.006;2024-03-23T14:27:54;12.80;66.60
25616;DHT22;13482;48.234;13.006;2024-03-23T14:30:21;12.80;66.50
25616;DHT22;13482;48.234;13.006;2024-03-23T14:32:48;12.80;66.30
25616;DHT22;13482;48.234;13.006;2024-03-23T14:35:14;12.80;66.10
25616;DHT22;13482;48.234;13.006;2024-03-23T14:37:41;12.80;66.00
25616;DHT22;13482;48.234;13.006;2024-03-23T14:40:08;12.80;65.90
25616;DHT22;13482;48.234;13.006;2024-03-23T14:42:39;12.80;65.90
25616;DHT22;13482;48.234;13.006;2024-03-23T14:45:06;12.80;65.90
25616;DHT22;13482;48.234;13.006;2024-03-23T14:47:33;12.80;65.80
25616;DHT22;13482;48.234;13.006;2024-03-23T14:49:59;12.80;65.90
25616;DHT22;13482;48.234;13.006;2024-03-23T14:52:26;12.80;65.90
25616;DHT22;13482;48.234;13.006;2024-03-23T14:54:53;12.80;65.90
25616;DHT22;13482;48.234;13.006;2024-03-23T14:57:22;12.80;65.80
25616;DHT22;13482;48.234;13.006;2024-03-23T14:59:48;12.80;65.80
25616;DHT22;13482;48.234;13.006;2024-03-23T15:02:15;12.80;65.90
25616;DHT22;13482;48.234;13.006;2024-03-23T15:04:41;12.80;65.90
25616;DHT22;13482;48.234;13.006;2024-03-23T15:07:08;12.80;65.80
25616;DHT22;13482;48.234;13.006;2024-03-23T15:09:34;12.80;65.70
25616;DHT22;13482;48.234;13.006;2024-03-23T15:12:01;12.80;65.70
25616;DHT22;13482;48.234;13.006;2024-03-23T15:14:27;12.80;65.70
25616;DHT22;13482;48.234;13.006;2024-03-23T15:16:53;12.80;65.70
25616;DHT22;13482;48.234;13.006;2024-03-23T15:19:20;12.80;65.80
25616;DHT22;13482;48.234;13.006;2024-03-23T15:21:46;12.80;65.90
25616;DHT22;13482;48.234;13.006;2024-03-23T15:24:12;12.80;65.90
25616;DHT22;13482;48.234;13.006;2024-03-23T15:26:39;12.80;65.70
25616;DHT22;13482;48.234;13.006;2024-03-23T15:29:06;12.80;65.20
25616;DHT22;13482;48.234;13.006;2024-03-23T15:31:43;12.60;64.20
25616;DHT22;13482;48.234;13.006;2024-03-23T15:34:09;12.50;63.80
25616;DHT22;13482;48.234;13.006;2024-03-23T15:36:37;12.40;64.00
25616;DHT22;13482;48.234;13.006;2024-03-23T15:39:06;12.30;63.90
25616;DHT22;13482;48.234;13.006;2024-03-23T15:41:33;12.20;64.00
25616;DHT22;13482;48.234;13.006;2024-03-23T15:44:03;12.10;64.10
25616;DHT22;13482;48.234;13.006;2024-03-23T15:46:29;12.00;64.20
25616;DHT22;13482;48.234;13.006;2024-03-23T15:48:56;11.90;64.10
25616;DHT22;13482;48.234;13.006;2024-03-23T15:51:22;11.80;64.10
25616;DHT22;13482;48.234;13.006;2024-03-23T15:53:49;11.60;64.40
25616;DHT22;13482;48.234;13.006;2024-03-23T15:56:20;11.60;64.50
25616;DHT22;13482;48.234;13.006;2024-03-23T15:58:47;11.50;64.70
25616;DHT22;13482;48.234;13.006;2024-03-23T16:01:13;11.40;64.70
25616;DHT22;13482;48.234;13.006;2024-03-23T16:03:40;11.30;64.80
25616;DHT22;13482;48.234;13.006;2024-03-23T16:06:07;11.30;64.80
25616;DHT22;13482;48.234;13.006;2024-03-23T16:08:34;11.20;64.90
25616;DHT22;13482;48.234;13.006;2024-03-23T16:11:01;11.20;64.90
25616;DHT22;13482;48.234;13.006;2024-03-23T16:13:30;11.10;65.00
25616;DHT22;13482;48.234;13.006;2024-03-23T16:15:58;11.10;65.10
25616;DHT22;13482;48.234;13.006;2024-03-23T16:18:30;11.00;65.20